< < Back
Terminal Aerodrome Forecast


Current Version              Previous Versions:   1  2  3  4  5  6  7  8  9  

Terminal Aerodrome Forecast

301
FTUS42 KILM 291318 AAB
TAFILM
TAF AMD
KILM 291318Z 2913/3012 33004KT 5SM BR BKN006
     FM291500 18007KT P6SM SCT040 BKN100
     FM291900 15007KT P6SM VCTS SCT045CB
     FM300100 20003KT P6SM SCT120 BKN250=

Latest METAR

810
SAUS70 KWBC 301500 RRH
MTRILM
METAR KILM 301453Z 11008KT 10SM FEW024 FEW029 28/22 A3002 RMK AO2 SLP165
T02830222 51010


USA.gov is the U.S. government's official web portal to all federal, state and local government web resources and services.